Time;durP1;ratioP1;P1;durP2;ratioP2;P2;SDS_P1;SDS_P2;PMS_P1;PMS_P2;Temp;Humidity;BMP_temperature;BMP_pressure;BME280_temperature;BME280_humidity;BME280_pressure;Samples;Min_cycle;Max_cycle;Signal;HPM_P1;HPM_P2
2023/05/02 00:00:13;;;;;;;2.57;2.37;;;10.10;99.90;;;;;;5032804;28;20190;-77
2023/05/02 00:02:39;;;;;;;4.07;2.77;;;10.00;99.90;;;;;;5050852;28;20244;-76
2023/05/02 00:05:05;;;;;;;2.40;2.20;;;10.10;99.90;;;;;;5051181;28;20453;-77
2023/05/02 00:07:32;;;;;;;10.33;2.40;;;10.10;99.90;;;;;;5051661;28;20227;-76
2023/05/02 00:09:59;;;;;;;2.23;2.03;;;10.30;99.90;;;;;;5051483;28;20423;-76
2023/05/02 00:12:24;;;;;;;3.07;2.50;;;10.20;99.90;;;;;;5051148;28;20847;-77
2023/05/02 00:14:50;;;;;;;3.40;2.33;;;10.30;99.90;;;;;;5051000;28;20424;-76
2023/05/02 00:17:17;;;;;;;2.50;2.30;;;10.20;99.90;;;;;;5033258;28;20201;-77
2023/05/02 00:19:43;;;;;;;3.40;2.77;;;10.10;99.90;;;;;;5050200;28;20282;-77
2023/05/02 00:22:08;;;;;;;3.17;2.70;;;10.10;99.90;;;;;;5051124;28;20552;-76
2023/05/02 00:24:34;;;;;;;4.27;2.10;;;10.00;99.90;;;;;;5051219;28;20181;-76
2023/05/02 00:27:00;;;;;;;2.97;2.33;;;10.10;99.90;;;;;;5051575;28;20202;-77
2023/05/02 00:29:25;;;;;;;1.90;1.80;;;9.90;99.90;;;;;;5051215;28;20186;-77
2023/05/02 00:31:51;;;;;;;2.80;2.60;;;9.90;99.90;;;;;;5051072;28;20179;-77
2023/05/02 00:34:17;;;;;;;2.77;2.57;;;9.70;99.90;;;;;;5050054;28;20178;-77
2023/05/02 00:36:42;;;;;;;3.10;2.80;;;9.70;99.90;;;;;;5050725;28;20408;-75
2023/05/02 00:39:08;;;;;;;2.63;2.43;;;9.60;99.90;;;;;;5049156;28;20208;-77
2023/05/02 00:41:34;;;;;;;2.60;2.40;;;9.70;99.90;;;;;;5032935;28;20190;-77
2023/05/02 00:44:00;;;;;;;2.90;2.70;;;9.70;99.90;;;;;;5050667;28;20893;-77
2023/05/02 00:46:26;;;;;;;3.17;2.63;;;9.70;99.90;;;;;;5050699;28;20189;-77
2023/05/02 00:48:52;;;;;;;3.00;2.80;;;9.70;99.90;;;;;;5050511;28;20514;-77
2023/05/02 00:51:18;;;;;;;4.33;3.70;;;9.70;99.90;;;;;;5048642;28;20929;-77
2023/05/02 00:53:44;;;;;;;4.00;3.37;;;9.60;99.90;;;;;;5050844;28;20419;-77
2023/05/02 00:56:10;;;;;;;4.67;3.00;;;9.70;99.90;;;;;;5050834;28;20993;-76
2023/05/02 00:58:40;;;;;;;3.23;2.50;;;9.80;99.90;;;;;;5048971;28;20455;-77
2023/05/02 01:01:30;;;;;;;3.30;3.00;;;9.60;99.90;;;;;;5050613;28;20556;-78
2023/05/02 01:03:58;;;;;;;3.20;3.00;;;9.60;99.90;;;;;;5049114;28;20932;-78
2023/05/02 01:06:30;;;;;;;3.90;3.60;;;9.70;99.90;;;;;;5049016;28;20415;-76
2023/05/02 01:09:23;;;;;;;3.03;2.83;;;9.60;99.90;;;;;;5048813;28;20782;-76
2023/05/02 01:12:04;;;;;;;3.07;2.87;;;9.70;99.90;;;;;;5049999;28;20419;-76
2023/05/02 01:14:39;;;;;;;3.73;3.33;;;9.70;99.90;;;;;;5050155;28;20417;-76
2023/05/02 01:17:09;;;;;;;4.00;3.00;;;9.70;99.90;;;;;;5050527;28;20417;-77
2023/05/02 01:19:37;;;;;;;4.20;3.90;;;9.60;99.90;;;;;;5032572;28;20892;-77
2023/05/02 01:22:06;;;;;;;4.27;3.87;;;9.80;99.90;;;;;;5050261;28;20458;-76
2023/05/02 01:24:39;;;;;;;3.87;3.50;;;9.60;99.90;;;;;;5033078;28;20425;-77
2023/05/02 01:27:13;;;;;;;4.07;3.77;;;9.60;99.90;;;;;;5050949;28;20443;-77
2023/05/02 01:29:40;;;;;;;5.57;4.57;;;9.80;99.90;;;;;;5050653;28;21051;-77
2023/05/02 01:32:07;;;;;;;5.17;4.70;;;9.80;99.90;;;;;;5049104;28;20416;-77
2023/05/02 01:34:37;;;;;;;4.93;4.43;;;9.90;99.90;;;;;;5050412;28;20422;-77
2023/05/02 01:37:04;;;;;;;4.10;3.80;;;10.00;99.90;;;;;;5049219;28;20476;-77
2023/05/02 01:39:32;;;;;;;6.97;4.60;;;10.00;99.90;;;;;;5049200;28;20462;-77
2023/05/02 01:42:01;;;;;;;6.13;4.30;;;10.10;99.90;;;;;;5049307;28;20466;-77
2023/05/02 01:44:29;;;;;;;4.73;4.30;;;10.20;99.90;;;;;;5049100;28;20896;-77
2023/05/02 01:46:56;;;;;;;6.27;4.33;;;10.10;99.90;;;;;;5050050;28;20430;-77
2023/05/02 01:49:24;;;;;;;8.37;5.10;;;10.20;99.90;;;;;;5049235;28;20413;-77
2023/05/02 01:51:50;;;;;;;4.80;4.40;;;10.10;99.90;;;;;;5049542;28;20415;-78
2023/05/02 01:54:19;;;;;;;4.73;4.33;;;10.30;99.90;;;;;;5050924;28;20431;-77
2023/05/02 01:56:45;;;;;;;5.43;4.93;;;10.30;99.90;;;;;;5050920;28;20448;-77
2023/05/02 01:59:14;;;;;;;6.33;5.20;;;10.30;99.90;;;;;;5050724;28;20422;-77
2023/05/02 02:01:42;;;;;;;6.50;4.53;;;10.40;99.90;;;;;;5050954;28;20566;-76
2023/05/02 02:04:10;;;;;;;5.27;4.77;;;10.40;99.90;;;;;;5052626;28;20467;-78
2023/05/02 02:06:35;;;;;;;5.30;4.90;;;10.20;99.90;;;;;;5052997;28;20984;-77
2023/05/02 02:09:02;;;;;;;7.53;5.33;;;10.30;99.90;;;;;;5052662;28;20444;-79
2023/05/02 02:11:45;;;;;;;5.83;5.33;;;10.40;99.90;;;;;;5054038;28;20782;-77
2023/05/02 02:14:20;;;;;;;5.80;5.07;;;10.40;99.90;;;;;;5054371;28;20420;-77
2023/05/02 02:16:46;;;;;;;6.87;4.93;;;10.40;99.90;;;;;;5054037;28;20927;-77
2023/05/02 02:19:14;;;;;;;5.80;5.00;;;10.30;99.90;;;;;;5055424;28;20449;-76
2023/05/02 02:21:42;;;;;;;4.90;4.50;;;10.30;99.90;;;;;;5055215;28;20417;-76
2023/05/02 02:24:08;;;;;;;5.50;5.00;;;10.30;99.90;;;;;;5054047;28;20421;-77
2023/05/02 02:26:35;;;;;;;5.10;4.70;;;10.20;99.90;;;;;;5052807;28;20465;-77
2023/05/02 02:29:02;;;;;;;4.90;4.50;;;10.10;99.90;;;;;;5036776;28;20484;-77
2023/05/02 02:31:35;;;;;;;5.23;4.67;;;10.10;99.90;;;;;;5052745;28;20421;-76
2023/05/02 02:34:01;;;;;;;4.60;4.00;;;10.20;99.90;;;;;;5052770;28;20498;-77
2023/05/02 02:36:44;;;;;;;8.03;5.30;;;10.10;99.90;;;;;;5053669;28;20470;-77
2023/05/02 02:39:38;;;;;;;11.13;5.30;;;10.10;99.90;;;;;;5051566;28;20441;-78
2023/05/02 02:42:06;;;;;;;5.17;4.70;;;10.00;99.90;;;;;;5055642;28;20788;-77
2023/05/02 02:45:00;;;;;;;7.03;5.50;;;9.90;99.90;;;;;;5055450;28;20424;-77
2023/05/02 02:47:42;;;;;;;5.93;5.23;;;9.80;99.90;;;;;;5054515;28;20446;-77
2023/05/02 02:50:30;;;;;;;8.70;4.60;;;9.90;99.90;;;;;;5055790;28;20398;-78
2023/05/02 02:53:04;;;;;;;5.83;4.90;;;9.80;99.90;;;;;;5053235;28;20423;-77
2023/05/02 02:55:47;;;;;;;6.53;5.10;;;9.70;99.90;;;;;;5051537;28;20461;-77
2023/05/02 02:58:20;;;;;;;6.50;5.77;;;9.60;99.90;;;;;;5052972;28;20440;-76
2023/05/02 03:00:46;;;;;;;6.70;5.33;;;9.50;99.90;;;;;;5051348;28;20421;-76
2023/05/02 03:03:14;;;;;;;5.80;5.20;;;9.40;99.90;;;;;;5034498;28;20481;-76
2023/05/02 03:05:42;;;;;;;6.07;5.30;;;9.50;99.90;;;;;;5052532;28;20452;-76
2023/05/02 03:08:08;;;;;;;6.73;6.03;;;9.40;99.90;;;;;;5052402;28;20439;-76
2023/05/02 03:10:34;;;;;;;6.13;5.53;;;9.40;99.90;;;;;;5034930;28;20420;-76
2023/05/02 03:13:00;;;;;;;8.33;5.70;;;9.40;99.90;;;;;;5051312;28;20272;-77
2023/05/02 03:16:05;;;;;;;6.47;5.80;;;9.30;99.90;;;;;;5050303;28;20510;-77
2023/05/02 03:18:32;;;;;;;10.90;5.80;;;9.20;99.90;;;;;;5052243;28;20199;-77
2023/05/02 03:20:57;;;;;;;6.47;5.70;;;9.20;99.90;;;;;;5051001;28;20423;-77
2023/05/02 03:23:23;;;;;;;12.43;6.43;;;9.20;99.90;;;;;;5052794;28;20484;-77
2023/05/02 03:25:49;;;;;;;9.43;5.63;;;9.10;99.90;;;;;;5034613;28;20196;-77
2023/05/02 03:28:15;;;;;;;9.00;6.10;;;9.00;99.90;;;;;;5050532;28;20218;-77
2023/05/02 03:30:41;;;;;;;7.53;6.73;;;8.90;99.90;;;;;;5052410;28;20422;-77
2023/05/02 03:33:07;;;;;;;6.70;6.03;;;8.90;99.90;;;;;;5051160;28;20182;-77
2023/05/02 03:35:33;;;;;;;8.47;6.37;;;8.80;99.90;;;;;;5050927;28;20427;-77
2023/05/02 03:37:58;;;;;;;7.57;6.73;;;8.90;99.90;;;;;;5052259;28;20446;-77
2023/05/02 03:40:25;;;;;;;6.97;6.27;;;8.90;99.90;;;;;;5052495;28;20261;-77
2023/05/02 03:42:51;;;;;;;7.60;6.50;;;8.90;99.90;;;;;;5052042;28;20209;-77
2023/05/02 03:45:17;;;;;;;7.30;5.93;;;8.90;99.90;;;;;;5051176;28;20433;-77
2023/05/02 03:47:42;;;;;;;8.27;6.20;;;8.80;99.90;;;;;;5050838;28;20958;-77
2023/05/02 03:50:08;;;;;;;7.30;6.23;;;8.90;99.90;;;;;;5050889;28;20186;-77
2023/05/02 03:52:34;;;;;;;7.50;6.70;;;8.80;99.90;;;;;;5033869;28;20250;-79
2023/05/02 03:55:00;;;;;;;7.97;6.40;;;8.80;99.90;;;;;;5051638;28;20441;-79
2023/05/02 03:57:29;;;;;;;7.30;6.60;;;8.90;99.90;;;;;;5017879;28;20207;-76
2023/05/02 03:59:55;;;;;;;9.30;6.67;;;8.80;99.90;;;;;;5051032;28;20419;-77
2023/05/02 04:02:20;;;;;;;6.60;5.90;;;8.80;99.90;;;;;;5050410;28;20465;-77
2023/05/02 04:04:46;;;;;;;9.53;6.77;;;8.80;99.90;;;;;;5051651;28;20184;-77
2023/05/02 04:07:17;;;;;;;11.47;7.47;;;8.90;99.90;;;;;;5050435;28;20258;-76
2023/05/02 04:09:42;;;;;;;16.30;8.20;;;8.80;99.90;;;;;;5050324;28;20196;-77
2023/05/02 04:12:08;;;;;;;13.20;9.73;;;8.90;99.90;;;;;;5051190;28;20432;-77
2023/05/02 04:14:34;;;;;;;9.50;7.43;;;8.90;99.90;;;;;;5051452;28;21020;-76
2023/05/02 04:16:59;;;;;;;8.80;7.90;;;9.00;99.90;;;;;;5050387;28;20229;-77
2023/05/02 04:19:25;;;;;;;9.90;7.50;;;8.90;99.90;;;;;;5050161;28;20220;-77
2023/05/02 04:21:50;;;;;;;8.20;7.30;;;8.90;99.90;;;;;;5050057;28;20551;-78
2023/05/02 04:24:16;;;;;;;10.00;7.47;;;9.00;99.90;;;;;;5050449;28;20318;-78
2023/05/02 04:26:41;;;;;;;9.53;7.50;;;9.10;99.90;;;;;;5051143;28;20771;-78
2023/05/02 04:29:07;;;;;;;10.07;7.93;;;9.20;99.90;;;;;;5049876;28;20301;-78
2023/05/02 04:31:33;;;;;;;13.13;7.90;;;9.40;99.90;;;;;;5033313;28;20176;-77
2023/05/02 04:33:59;;;;;;;9.83;7.67;;;9.40;99.90;;;;;;5049602;28;20187;-78
2023/05/02 04:36:27;;;;;;;9.10;7.80;;;9.60;99.90;;;;;;5049274;28;20856;-78
2023/05/02 04:38:53;;;;;;;12.50;8.23;;;9.40;99.90;;;;;;5047698;28;20202;-78
2023/05/02 04:41:19;;;;;;;11.00;7.80;;;9.60;99.90;;;;;;5015241;28;20452;-77
2023/05/02 04:43:44;;;;;;;9.03;7.80;;;9.60;99.90;;;;;;5049254;28;20557;-77
2023/05/02 04:46:10;;;;;;;10.43;7.43;;;9.70;99.90;;;;;;5049851;28;20419;-77
2023/05/02 04:48:36;;;;;;;11.93;8.57;;;9.70;99.90;;;;;;5048428;28;20196;-78
2023/05/02 04:51:01;;;;;;;10.23;9.13;;;9.80;99.90;;;;;;5031830;28;20424;-78
2023/05/02 04:53:27;;;;;;;9.57;8.30;;;9.80;99.90;;;;;;5049535;28;20595;-78
2023/05/02 04:55:53;;;;;;;9.40;8.50;;;9.80;99.90;;;;;;5015149;28;20427;-77
2023/05/02 04:58:19;;;;;;;12.33;10.27;;;9.80;99.90;;;;;;5049430;28;20775;-78
2023/05/02 05:00:44;;;;;;;9.87;8.90;;;9.80;99.90;;;;;;5031859;28;20191;-78
2023/05/02 05:03:10;;;;;;;8.60;7.70;;;9.90;99.90;;;;;;5049302;28;20457;-78
2023/05/02 05:05:36;;;;;;;12.90;7.73;;;9.90;99.90;;;;;;5049845;28;20180;-79
2023/05/02 05:08:01;;;;;;;9.13;8.23;;;10.00;99.90;;;;;;5049338;28;20208;-78
2023/05/02 05:10:27;;;;;;;11.70;7.10;;;10.10;99.90;;;;;;5031212;28;20187;-78
2023/05/02 05:12:53;;;;;;;9.27;7.80;;;10.00;99.90;;;;;;5048059;28;20187;-79
2023/05/02 05:15:22;;;;;;;10.20;7.40;;;10.10;99.90;;;;;;5049750;28;20189;-78
2023/05/02 05:17:48;;;;;;;9.20;7.00;;;10.10;99.90;;;;;;5047773;28;20798;-78
2023/05/02 05:20:14;;;;;;;8.57;7.13;;;10.20;99.90;;;;;;5031381;28;20433;-78
2023/05/02 05:22:40;;;;;;;10.43;7.60;;;10.30;99.90;;;;;;5047639;28;20277;-78
2023/05/02 05:25:07;;;;;;;8.63;7.73;;;10.30;99.90;;;;;;5031262;28;20189;-77
2023/05/02 05:27:33;;;;;;;12.40;7.93;;;10.30;99.90;;;;;;5048451;28;20493;-78
2023/05/02 05:29:59;;;;;;;10.20;9.20;;;10.40;99.90;;;;;;5049298;28;20502;-78
2023/05/02 05:32:25;;;;;;;8.40;7.60;;;10.40;99.90;;;;;;5049113;28;20518;-78
2023/05/02 05:34:52;;;;;;;8.73;7.67;;;10.50;99.90;;;;;;5049625;28;20551;-77
2023/05/02 05:37:17;;;;;;;9.90;7.93;;;10.50;99.90;;;;;;5031007;28;20199;-78
2023/05/02 05:39:43;;;;;;;10.40;7.93;;;10.40;99.90;;;;;;5031285;28;20433;-77
2023/05/02 05:42:09;;;;;;;9.20;7.87;;;10.50;99.90;;;;;;5049523;28;20477;-78
2023/05/02 05:44:35;;;;;;;9.23;7.90;;;10.60;99.90;;;;;;5049119;28;20206;-79
2023/05/02 05:47:01;;;;;;;9.50;7.67;;;10.70;99.90;;;;;;5046892;28;20185;-79
2023/05/02 05:49:27;;;;;;;9.30;7.77;;;10.70;99.90;;;;;;5048348;28;20509;-79
2023/05/02 05:51:52;;;;;;;8.13;6.40;;;10.70;99.90;;;;;;5047197;28;21102;-78
2023/05/02 05:54:18;;;;;;;11.37;7.70;;;10.90;99.90;;;;;;5048198;28;20185;-76
2023/05/02 05:56:45;;;;;;;9.70;8.00;;;11.20;99.90;;;;;;5048658;28;20267;-78
2023/05/02 05:59:10;;;;;;;8.43;7.53;;;11.10;99.90;;;;;;5048112;28;20237;-78
2023/05/02 06:01:36;;;;;;;9.80;7.60;;;11.20;99.90;;;;;;5030454;28;20420;-77
2023/05/02 06:04:03;;;;;;;10.93;9.50;;;11.20;99.90;;;;;;5047806;28;20641;-77
2023/05/02 06:06:30;;;;;;;11.23;9.40;;;11.30;99.90;;;;;;5046282;28;20419;-77
2023/05/02 06:08:56;;;;;;;12.87;9.50;;;11.30;99.90;;;;;;5047735;28;20993;-77
2023/05/02 06:11:23;;;;;;;12.53;9.67;;;11.30;99.90;;;;;;5046323;28;20468;-79
2023/05/02 06:13:50;;;;;;;11.50;9.50;;;11.30;99.90;;;;;;5047458;28;20191;-77
2023/05/02 06:16:16;;;;;;;11.80;9.17;;;11.30;99.90;;;;;;5046902;28;20424;-76
2023/05/02 06:18:42;;;;;;;13.17;10.40;;;11.40;99.90;;;;;;5048729;28;20477;-78
2023/05/02 06:21:08;;;;;;;10.13;8.33;;;11.40;99.90;;;;;;5048067;28;20454;-77
2023/05/02 06:23:34;;;;;;;14.27;8.13;;;11.40;99.90;;;;;;5047843;28;20463;-77
2023/05/02 06:26:01;;;;;;;11.80;7.87;;;11.50;99.90;;;;;;5047065;28;20196;-77
2023/05/02 06:28:27;;;;;;;8.30;7.37;;;11.40;99.90;;;;;;5048593;28;20205;-77
2023/05/02 06:31:00;;;;;;;9.33;7.50;;;11.40;99.90;;;;;;5048340;28;20461;-79
2023/05/02 06:33:26;;;;;;;7.57;6.87;;;11.60;99.90;;;;;;5047588;28;21161;-77
2023/05/02 06:35:52;;;;;;;8.67;7.63;;;11.50;99.90;;;;;;5048417;28;20977;-76
2023/05/02 06:38:18;;;;;;;8.80;6.97;;;11.60;99.90;;;;;;5048191;28;20435;-78
2023/05/02 06:40:44;;;;;;;7.70;6.90;;;11.70;99.90;;;;;;5048089;28;20539;-76
2023/05/02 06:43:10;;;;;;;8.93;7.80;;;11.80;99.90;;;;;;5049150;28;20513;-77
2023/05/02 06:45:36;;;;;;;8.63;7.73;;;11.80;99.90;;;;;;5048484;28;20190;-77
2023/05/02 06:48:02;;;;;;;9.17;7.27;;;11.90;99.90;;;;;;5048181;28;20459;-78
2023/05/02 06:50:28;;;;;;;8.93;7.87;;;11.90;99.90;;;;;;5051067;28;20797;-79
2023/05/02 06:52:54;;;;;;;13.00;8.33;;;12.00;99.90;;;;;;5052642;28;20435;-77
2023/05/02 06:55:20;;;;;;;9.10;8.10;;;12.00;99.90;;;;;;5053573;28;20425;-77
2023/05/02 06:57:46;;;;;;;10.53;7.93;;;12.10;99.90;;;;;;5053666;28;20256;-79
2023/05/02 07:00:12;;;;;;;11.60;7.90;;;12.10;99.90;;;;;;5054311;28;20448;-78
2023/05/02 07:02:38;;;;;;;10.03;8.17;;;12.10;99.90;;;;;;5052729;28;20469;-77
2023/05/02 07:05:03;;;;;;;14.20;7.93;;;12.10;99.90;;;;;;5052557;28;20416;-79
2023/05/02 07:07:29;;;;;;;13.40;8.60;;;12.10;99.90;;;;;;5054043;28;20194;-79
2023/05/02 07:09:55;;;;;;;18.17;9.00;;;12.00;99.90;;;;;;5036141;28;20417;-79
2023/05/02 07:12:20;;;;;;;11.67;9.30;;;12.10;99.90;;;;;;5036253;28;20565;-77
2023/05/02 07:14:46;;;;;;;13.07;9.80;;;12.20;99.90;;;;;;5052775;28;20688;-77
2023/05/02 07:17:12;;;;;;;11.50;8.90;;;12.10;99.90;;;;;;5052953;28;20190;-78
2023/05/02 07:19:37;;;;;;;13.00;9.70;;;12.10;99.90;;;;;;5053446;28;20217;-77
2023/05/02 07:22:03;;;;;;;9.60;8.60;;;12.20;99.90;;;;;;5051805;28;20188;-78
2023/05/02 07:24:29;;;;;;;11.33;9.83;;;12.20;99.90;;;;;;5051150;28;20570;-77
2023/05/02 07:26:54;;;;;;;11.70;9.67;;;12.20;99.90;;;;;;5051119;28;20298;-76
2023/05/02 07:29:20;;;;;;;10.73;9.37;;;12.20;99.90;;;;;;5052959;28;20479;-78
2023/05/02 07:31:45;;;;;;;13.40;9.20;;;12.10;99.90;;;;;;5051416;28;20269;-78
2023/05/02 07:34:11;;;;;;;12.83;10.10;;;12.20;99.90;;;;;;5051239;28;20191;-76
2023/05/02 07:36:37;;;;;;;12.23;10.30;;;12.30;99.90;;;;;;5052457;28;20274;-77
2023/05/02 07:39:03;;;;;;;12.87;10.57;;;12.20;99.90;;;;;;5052973;28;20242;-76
2023/05/02 07:41:28;;;;;;;12.80;10.83;;;12.20;99.90;;;;;;5052009;28;20925;-78
2023/05/02 07:43:56;;;;;;;13.50;11.90;;;12.20;99.90;;;;;;5052062;28;20457;-78
2023/05/02 07:46:22;;;;;;;13.73;11.50;;;12.20;99.90;;;;;;5052222;28;20183;-78
2023/05/02 07:48:48;;;;;;;13.50;11.33;;;12.20;99.90;;;;;;5052045;28;20445;-78
2023/05/02 07:51:13;;;;;;;13.43;10.90;;;12.10;99.90;;;;;;5052473;28;20420;-78
2023/05/02 07:53:39;;;;;;;16.17;12.60;;;12.10;99.90;;;;;;5051032;28;20191;-77
2023/05/02 07:56:06;;;;;;;15.47;11.97;;;12.10;99.90;;;;;;5051986;28;20276;-78
2023/05/02 07:58:31;;;;;;;12.80;11.23;;;12.00;99.90;;;;;;5052146;28;20213;-77
2023/05/02 08:00:57;;;;;;;14.00;12.47;;;12.10;99.90;;;;;;5052436;28;20490;-76
2023/05/02 08:03:23;;;;;;;16.63;11.80;;;12.00;99.90;;;;;;5036731;28;20312;-78
2023/05/02 08:05:48;;;;;;;20.37;10.93;;;12.00;99.90;;;;;;5055035;28;20188;-77
2023/05/02 08:08:14;;;;;;;14.80;11.87;;;12.00;99.90;;;;;;5042340;28;20199;-78
2023/05/02 08:10:39;;;;;;;15.70;12.43;;;12.00;99.90;;;;;;5060727;28;20198;-77
2023/05/02 08:13:05;;;;;;;15.97;12.30;;;12.10;99.90;;;;;;5048230;28;20178;-77
2023/05/02 08:15:31;;;;;;;18.20;13.20;;;11.90;99.90;;;;;;5036146;28;20317;-78
2023/05/02 08:17:56;;;;;;;13.27;11.63;;;12.00;99.90;;;;;;5052993;28;20293;-77
2023/05/02 08:20:22;;;;;;;13.27;11.43;;;12.00;99.90;;;;;;5021184;28;20190;-77
2023/05/02 08:22:47;;;;;;;15.20;12.03;;;12.00;99.90;;;;;;5053252;28;20726;-77
2023/05/02 08:25:13;;;;;;;13.43;11.80;;;12.10;99.90;;;;;;5050105;28;20197;-77
2023/05/02 08:27:39;;;;;;;14.63;13.03;;;12.00;99.90;;;;;;5033666;28;20221;-77
2023/05/02 08:30:06;;;;;;;20.00;13.97;;;12.10;99.90;;;;;;5049811;28;20420;-77
2023/05/02 08:32:31;;;;;;;21.00;14.50;;;12.10;99.90;;;;;;5049538;28;20190;-77
2023/05/02 08:34:57;;;;;;;21.10;15.60;;;12.10;99.90;;;;;;5050177;28;20485;-77
2023/05/02 08:37:23;;;;;;;17.37;14.00;;;12.10;99.90;;;;;;5050631;28;20508;-77
2023/05/02 08:39:48;;;;;;;20.00;16.03;;;12.20;99.90;;;;;;5050187;28;20205;-77
2023/05/02 08:42:14;;;;;;;18.73;15.67;;;12.20;99.90;;;;;;5048762;28;20225;-77
2023/05/02 08:44:40;;;;;;;19.60;16.33;;;12.10;99.90;;;;;;5049144;28;20292;-77
2023/05/02 08:47:09;;;;;;;21.23;16.37;;;12.20;99.90;;;;;;5050405;28;20413;-78
2023/05/02 08:49:35;;;;;;;19.87;16.57;;;12.20;99.90;;;;;;5050450;28;20187;-77
2023/05/02 08:52:02;;;;;;;19.60;14.73;;;12.10;99.90;;;;;;5050101;28;20414;-77
2023/05/02 08:54:28;;;;;;;25.70;16.77;;;12.20;99.90;;;;;;5032420;28;20433;-78
2023/05/02 08:56:58;;;;;;;22.13;15.83;;;12.30;99.90;;;;;;5032316;28;20443;-77
2023/05/02 08:59:24;;;;;;;18.27;15.23;;;12.30;99.90;;;;;;5048732;28;20417;-78
2023/05/02 09:01:54;;;;;;;19.10;16.30;;;12.20;99.90;;;;;;5050303;28;20414;-78
2023/05/02 09:04:23;;;;;;;21.73;17.03;;;12.30;99.90;;;;;;5049996;28;20500;-76
2023/05/02 09:06:48;;;;;;;20.73;14.80;;;12.50;99.90;;;;;;5049402;28;20451;-77
2023/05/02 09:09:14;;;;;;;19.77;15.57;;;12.50;99.90;;;;;;5031901;28;20449;-77
2023/05/02 09:11:40;;;;;;;23.23;15.33;;;12.50;99.90;;;;;;5047508;28;20665;-77
2023/05/02 09:14:14;;;;;;;28.50;17.33;;;12.40;99.90;;;;;;5048134;28;20950;-78
2023/05/02 09:16:40;;;;;;;21.83;16.83;;;12.70;99.90;;;;;;5047910;28;20396;-77
2023/05/02 09:19:06;;;;;;;23.30;17.00;;;12.80;99.90;;;;;;5049405;28;20434;-78
2023/05/02 09:21:36;;;;;;;20.67;17.17;;;12.80;99.90;;;;;;5047203;28;20189;-77
2023/05/02 09:24:12;;;;;;;18.40;15.73;;;12.80;99.90;;;;;;5049786;28;20471;-78
2023/05/02 09:26:39;;;;;;;18.77;16.30;;;12.80;99.90;;;;;;5050306;28;20514;-78
2023/05/02 09:29:04;;;;;;;20.77;17.10;;;12.70;99.90;;;;;;5050106;28;20481;-77
2023/05/02 09:31:35;;;;;;;23.40;18.13;;;12.70;99.90;;;;;;5048830;28;20417;-77
2023/05/02 09:34:13;;;;;;;21.93;17.10;;;12.70;99.90;;;;;;5047069;28;20179;-77
2023/05/02 09:36:50;;;;;;;18.97;15.57;;;12.70;99.90;;;;;;5031152;28;20521;-78
2023/05/02 09:39:20;;;;;;;20.60;15.57;;;12.50;99.90;;;;;;5047391;28;20453;-75
2023/05/02 09:41:47;;;;;;;19.90;17.60;;;12.50;99.90;;;;;;5046672;28;20452;-77
2023/05/02 09:44:18;;;;;;;21.77;17.17;;;12.40;99.90;;;;;;5047642;28;20521;-76
2023/05/02 09:46:46;;;;;;;29.53;17.40;;;12.40;99.90;;;;;;5048874;28;20426;-77
2023/05/02 09:49:13;;;;;;;20.37;16.10;;;12.50;99.90;;;;;;5046108;28;20436;-77
2023/05/02 09:51:39;;;;;;;21.13;17.37;;;12.70;99.90;;;;;;5048797;28;20535;-76
2023/05/02 09:54:05;;;;;;;18.23;16.23;;;12.80;99.90;;;;;;5048671;28;20420;-76
2023/05/02 09:56:34;;;;;;;20.77;16.20;;;13.10;99.90;;;;;;5046446;28;20882;-76
2023/05/02 09:59:14;;;;;;;22.00;17.30;;;13.40;99.90;;;;;;5048241;28;20719;-77
2023/05/02 10:01:43;;;;;;;21.87;16.80;;;13.70;99.90;;;;;;5048505;28;20433;-76
2023/05/02 10:04:15;;;;;;;19.83;16.30;;;13.60;99.90;;;;;;5046332;28;20481;-76
2023/05/02 10:06:42;;;;;;;18.27;16.27;;;14.30;99.90;;;;;;5047404;28;20475;-76
2023/05/02 10:09:10;;;;;;;18.73;15.40;;;14.70;99.90;;;;;;5047656;28;20446;-76
2023/05/02 10:11:38;;;;;;;19.17;15.20;;;15.00;99.90;;;;;;5047610;28;20422;-78
2023/05/02 10:14:08;;;;;;;20.13;15.47;;;15.20;99.90;;;;;;5046590;28;20872;-78
2023/05/02 10:16:37;;;;;;;18.53;14.70;;;15.50;99.90;;;;;;5048235;28;20896;-76
2023/05/02 10:19:08;;;;;;;19.50;16.10;;;15.90;99.90;;;;;;5047832;28;20445;-77
2023/05/02 10:21:35;;;;;;;20.70;14.53;;;16.10;99.90;;;;;;5048326;28;20483;-79
2023/05/02 10:24:03;;;;;;;18.10;14.00;;;17.00;99.90;;;;;;5051119;28;20577;-77
2023/05/02 10:26:28;;;;;;;16.90;15.17;;;17.30;99.90;;;;;;5052213;28;20485;-77
2023/05/02 10:28:58;;;;;;;16.47;14.30;;;17.30;99.90;;;;;;5051948;28;20482;-77
2023/05/02 10:31:25;;;;;;;18.93;12.67;;;17.80;99.90;;;;;;5033536;28;20190;-77
2023/05/02 10:33:51;;;;;;;18.10;14.77;;;18.40;99.90;;;;;;5050466;28;20936;-76
2023/05/02 10:36:21;;;;;;;18.77;13.70;;;18.40;99.90;;;;;;5049955;28;20435;-77
2023/05/02 10:38:47;;;;;;;15.80;12.53;;;18.40;99.90;;;;;;5051344;28;20211;-76
2023/05/02 10:41:18;;;;;;;16.63;13.87;;;18.30;99.90;;;;;;5052466;28;20436;-80
2023/05/02 10:43:48;;;;;;;14.30;12.80;;;17.80;99.90;;;;;;5036327;28;20467;-79
2023/05/02 10:46:40;;;;;;;15.30;13.23;;;17.60;99.90;;;;;;5053846;28;20533;-80
2023/05/02 10:49:07;;;;;;;16.37;14.67;;;17.40;99.90;;;;;;5047846;28;20452;-81
2023/05/02 10:51:35;;;;;;;15.20;12.67;;;17.40;99.90;;;;;;5035561;28;20448;-80
2023/05/02 10:54:19;;;;;;;15.53;13.20;;;17.30;99.90;;;;;;5035210;28;20468;-80
2023/05/02 10:57:02;;;;;;;17.20;12.43;;;17.60;99.90;;;;;;5051909;28;20483;-81
2023/05/02 10:59:48;;;;;;;17.00;12.63;;;18.30;99.90;;;;;;5051461;28;20436;-78
2023/05/02 11:02:24;;;;;;;16.33;12.33;;;18.70;99.90;;;;;;5050380;28;20462;-78
2023/05/02 11:05:05;;;;;;;12.43;11.13;;;19.20;99.90;;;;;;5050858;28;20426;-79
2023/05/02 11:07:33;;;;;;;15.40;12.87;;;19.90;99.50;;;;;;5052408;28;20441;-79
2023/05/02 11:10:17;;;;;;;17.40;14.00;;;19.90;98.50;;;;;;5051048;28;20942;-78
2023/05/02 11:12:59;;;;;;;16.37;14.60;;;19.20;97.80;;;;;;5051596;28;20516;-78
2023/05/02 11:15:27;;;;;;;20.03;13.80;;;18.70;99.60;;;;;;5051734;28;20435;-83
2023/05/02 11:18:13;;;;;;;16.37;13.50;;;18.20;99.90;;;;;;5051753;28;20446;-78
2023/05/02 11:20:40;;;;;;;20.43;14.53;;;18.20;99.90;;;;;;5052465;28;20426;-79
2023/05/02 11:23:14;;;;;;;15.00;13.20;;;18.30;99.90;;;;;;5051601;28;20877;-78
2023/05/02 11:25:45;;;;;;;15.70;13.23;;;19.10;99.90;;;;;;5049931;28;20413;-78
2023/05/02 11:28:33;;;;;;;15.73;13.00;;;19.70;98.90;;;;;;5051109;28;20440;-77
2023/05/02 11:30:59;;;;;;;14.40;12.03;;;19.80;96.40;;;;;;5052094;28;20408;-78
2023/05/02 11:33:26;;;;;;;19.57;14.13;;;19.80;96.10;;;;;;5051810;28;20646;-78
2023/05/02 11:35:52;;;;;;;15.60;13.10;;;19.90;95.00;;;;;;5052435;28;20465;-79
2023/05/02 11:38:20;;;;;;;15.43;13.93;;;19.60;95.90;;;;;;5052976;28;20441;-80
2023/05/02 11:40:53;;;;;;;13.13;11.43;;;19.50;97.40;;;;;;5035017;28;20289;-78
2023/05/02 11:43:20;;;;;;;14.53;12.90;;;19.70;98.10;;;;;;5052949;28;20816;-77
2023/05/02 11:45:46;;;;;;;18.40;12.87;;;20.20;97.00;;;;;;5053313;28;21275;-79
2023/05/02 11:48:14;;;;;;;20.60;13.43;;;20.50;94.60;;;;;;5034413;28;20554;-78
2023/05/02 11:50:49;;;;;;;19.63;13.83;;;20.90;92.20;;;;;;5052357;28;20426;-82
2023/05/02 11:53:17;;;;;;;19.20;13.30;;;21.20;92.00;;;;;;5050904;28;20699;-80
2023/05/02 11:56:01;;;;;;;15.70;11.27;;;20.90;88.90;;;;;;5050692;28;20516;-79
2023/05/02 11:58:31;;;;;;;13.97;12.47;;;21.20;90.90;;;;;;5051919;28;20458;-79
2023/05/02 12:00:57;;;;;;;11.63;10.43;;;21.30;84.90;;;;;;5050188;28;20431;-80
2023/05/02 12:03:24;;;;;;;14.03;12.10;;;21.60;90.40;;;;;;5050477;28;20469;-79
2023/05/02 12:05:50;;;;;;;14.37;12.77;;;21.30;84.90;;;;;;5052400;28;20411;-80
2023/05/02 12:08:24;;;;;;;14.67;13.13;;;21.10;86.60;;;;;;5052428;28;20451;-81
2023/05/02 12:10:51;;;;;;;14.80;12.57;;;20.80;86.70;;;;;;5049851;28;20493;-80
2023/05/02 12:13:17;;;;;;;13.77;12.00;;;20.20;87.50;;;;;;5032529;28;20426;-81
2023/05/02 12:15:43;;;;;;;22.80;12.70;;;20.40;89.20;;;;;;5050986;28;20422;-80
2023/05/02 12:18:09;;;;;;;17.80;11.10;;;20.50;90.20;;;;;;5033036;28;20459;-79
2023/05/02 12:20:37;;;;;;;17.00;12.93;;;20.80;88.20;;;;;;5033324;28;20434;-79
2023/05/02 12:23:05;;;;;;;15.83;11.87;;;20.80;86.00;;;;;;5052920;28;20462;-79
2023/05/02 12:25:31;;;;;;;18.60;12.90;;;20.40;85.40;;;;;;5050058;28;20417;-78
2023/05/02 12:27:59;;;;;;;16.43;12.63;;;20.20;86.90;;;;;;5049620;28;20974;-79
2023/05/02 12:30:26;;;;;;;16.93;13.07;;;20.40;86.20;;;;;;5051305;28;20422;-79
2023/05/02 12:32:57;;;;;;;16.73;13.77;;;20.20;85.80;;;;;;5048907;28;20831;-80
2023/05/02 12:35:22;;;;;;;14.60;12.00;;;20.10;86.00;;;;;;5050335;28;20407;-78
2023/05/02 12:37:48;;;;;;;14.27;12.83;;;20.30;89.60;;;;;;5031729;28;20438;-80
2023/05/02 12:40:16;;;;;;;17.20;13.50;;;20.30;84.90;;;;;;5051219;28;20668;-79
2023/05/02 12:42:56;;;;;;;14.80;12.53;;;19.80;85.70;;;;;;5034910;28;20687;-81
2023/05/02 12:45:22;;;;;;;14.07;12.37;;;19.50;88.30;;;;;;5055005;28;20936;-80